Nueve de Julio, Argentina
Current Conditions -  °F | °C
As of 9:00 PM on Saturday 20 Dec 2014 (Local Time) from SAEZ Reporting Station
Few Clouds Few Clouds  
Wind Chill: 21°   Ceiling: Unl
Heat Index: 21°   Visibility: 6mi
Dew Point: 17°   Wind: 7mph
Humidity: 78%   Direction: 150°SSE
Pressure: 29.62"   Gusts: NA
Location:  35.45°S, 60.87°W
Report Text: SAEZ 210000Z 15006KT 9999 FEW030 21/17 Q1003
Loading
Personal Weather Stations






























Interactive Weather Map New forecast layout! Learn more

10-Day Weather Forecast

Advertisements
Track Severe Weather on mobile